Creek Data

    Home     View Charts     View Raw Data     Messages

ID Distance Battery Voltage Battery Current Internal Temp Internal Humidity External Temp Solar Input rssi snr Time Stamp Record
66521 22.9 3.73 -8 44 51 45 4.5 -77 7 02/17/2026 08:15 AM 49339
66520 13.6 3.72 -10 44 51 45 4.3 -78 8 02/17/2026 08:00 AM 49338
66519 13.7 3.72 -10 44 51 45 1.6 -80 7 02/17/2026 07:30 AM 49336
66518 13.7 3.74 -9 44 51 45 4 -71 8 02/17/2026 07:15 AM 49335
66517 13.7 3.74 -5 45 51 45 1.1 -71 8 02/17/2026 07:00 AM 49334
66516 13.7 3.74 -35 45 51 46 0.1 -72 9 02/17/2026 06:45 AM 49333
66515 13.7 3.74 -5 45 51 46 0 -71 8 02/17/2026 06:30 AM 49332
66514 13.8 3.76 -5 44 51 45 0 -71 8 02/17/2026 06:15 AM 49331
66513 13.8 3.76 -5 44 51 45 0 -71 9 02/17/2026 06:00 AM 49330
66512 13.8 3.77 -5 44 50 45 0 -71 8 02/17/2026 05:45 AM 49329
66511 13.8 3.77 -5 44 50 45 0 -71 8 02/17/2026 05:30 AM 49328
66510 13.8 3.89 -5 44 50 45 0 -71 8 02/17/2026 05:15 AM 49327
66509 13.8 3.74 -5 43 51 45 0 -69 8 02/17/2026 05:00 AM 49326
66508 13.8 3.88 -5 42 51 43 0 -70 8 02/17/2026 04:45 AM 49325
66507 13.8 3.75 -5 42 51 43 0 -70 8 02/17/2026 04:30 AM 49324
66506 13.8 3.76 -5 42 51 43 0.1 -69 8 02/17/2026 04:15 AM 49323
66505 13.8 3.88 -5 42 51 44 0 -70 8 02/17/2026 04:00 AM 49322
66504 13.8 3.79 -5 42 51 44 0 -69 8 02/17/2026 03:45 AM 49321
66503 13.8 3.89 -5 42 51 43 0 -70 8 02/17/2026 03:30 AM 49320
66502 13.9 3.79 -5 42 51 43 0 -69 9 02/17/2026 03:15 AM 49319
66501 13.9 3.89 -5 42 51 42 0 -68 8 02/17/2026 03:00 AM 49318
66500 13.9 3.79 -5 42 51 44 0 -70 9 02/17/2026 02:45 AM 49317
66499 13.9 3.89 -5 42 51 43 0 -69 8 02/17/2026 02:30 AM 49316
66498 13.9 3.78 -5 42 51 43 0.1 -70 8 02/17/2026 02:15 AM 49315
66497 13.9 3.78 -5 42 51 42 0 -70 8 02/17/2026 02:00 AM 49314